Maipu, Argentina
Current Conditions -  °F | °C
As of 2:00 AM on Saturday 25 Oct 2014 (Local Time) from SAZM Reporting Station
Overcast Overcast  
Wind Chill: 59°   Ceiling: Unl
Heat Index: 59°   Visibility: 0.12mi
Dew Point: 59°   Wind: 0mph
Humidity: 100%   Direction: NA
Pressure: 29.97"   Gusts: NA
Location:  36.83°S, 57.85°W
Report Text: SAZM 250500Z 00000KT 0200 VV/// FG 15/15 Q1015
Loading
Personal Weather Stations






























Interactive Weather Map
Tropical Storm Tracking
New forecast layout! Learn more

10-Day Weather Forecast

Advertisements
Track Severe Weather on mobile